Time;durP1;ratioP1;P1;durP2;ratioP2;P2;SDS_P1;SDS_P2;PMS_P1;PMS_P2;Temp;Humidity;BMP_temperature;BMP_pressure;BME280_temperature;BME280_humidity;BME280_pressure;Samples;Min_cycle;Max_cycle;Signal;HPM_P1;HPM_P2
2022/08/02 00:00:47;;;;;;;2.63;1.02;;;;;;;25.50;39.46;94747.75;4968129;28;20074;-63
2022/08/02 00:03:13;;;;;;;1.75;1.00;;;;;;;25.41;39.53;94739.97;4965722;28;20011;-67
2022/08/02 00:05:38;;;;;;;3.10;1.80;;;;;;;25.56;39.33;94759.28;4978627;28;20030;-65
2022/08/02 00:08:04;;;;;;;1.42;0.95;;;;;;;25.65;39.57;94778.03;4982827;28;20569;-62
2022/08/02 00:10:31;;;;;;;1.77;1.00;;;;;;;25.67;39.00;94775.53;5026027;28;20045;-63
2022/08/02 00:12:56;;;;;;;1.58;1.30;;;;;;;25.41;39.12;94731.78;5018141;28;20120;-66
2022/08/02 00:15:22;;;;;;;2.40;1.17;;;;;;;25.48;39.30;94758.47;5023294;28;20489;-63
2022/08/02 00:17:47;;;;;;;2.03;1.10;;;;;;;25.48;39.32;94758.47;5026040;28;20179;-62
2022/08/02 00:20:13;;;;;;;2.33;1.10;;;;;;;25.56;39.22;94770.22;5023335;28;20540;-66
2022/08/02 00:22:38;;;;;;;3.38;1.23;;;;;;;25.23;39.13;94740.88;5021398;28;20132;-67
2022/08/02 00:25:04;;;;;;;2.67;1.30;;;;;;;25.48;39.53;94772.16;4992922;28;20053;-64
2022/08/02 00:27:30;;;;;;;2.40;1.15;;;;;;;25.41;39.93;94764.59;5001938;28;20030;-64
2022/08/02 00:29:55;;;;;;;2.45;1.00;;;;;;;25.27;39.67;94744.00;5003361;28;20042;-65
2022/08/02 00:32:21;;;;;;;1.60;1.00;;;;;;;25.19;39.66;94726.78;5002542;28;20501;-64
2022/08/02 00:34:47;;;;;;;1.67;0.90;;;;;;;25.10;39.90;94734.69;5015532;28;20120;-69
2022/08/02 00:37:12;;;;;;;1.50;1.13;;;;;;;25.14;40.32;94735.84;5003574;28;20177;-71
2022/08/02 00:39:38;;;;;;;3.15;1.30;;;;;;;25.29;40.28;94749.69;5004131;28;20367;-69
2022/08/02 00:42:04;;;;;;;2.28;1.20;;;;;;;25.13;40.28;94728.16;5003000;28;20045;-63
2022/08/02 00:44:29;;;;;;;1.67;1.10;;;;;;;25.29;40.44;94757.91;5009879;28;20424;-67
2022/08/02 00:46:54;;;;;;;1.30;1.00;;;;;;;25.27;40.25;94754.94;5013551;28;20038;-67
2022/08/02 00:49:20;;;;;;;2.03;1.15;;;;;;;25.07;40.28;94731.00;5003710;28;20472;-66
2022/08/02 00:51:45;;;;;;;2.42;1.48;;;;;;;25.28;40.03;94756.41;5003751;28;20516;-66
2022/08/02 00:54:11;;;;;;;2.08;1.50;;;;;;;25.08;40.84;94729.75;5003971;28;20025;-66
2022/08/02 00:56:37;;;;;;;2.20;1.17;;;;;;;25.21;40.65;94746.13;5002673;28;20416;-66
2022/08/02 00:59:03;;;;;;;2.05;1.10;;;;;;;25.31;39.81;94754.63;5011635;28;20038;-65
2022/08/02 01:01:37;;;;;;;2.17;1.40;;;;;;;25.17;39.69;94734.78;5003082;28;20038;-65
2022/08/02 01:04:10;;;;;;;3.28;1.10;;;;;;;25.27;39.86;94744.00;5003328;28;20042;-70
2022/08/02 01:06:37;;;;;;;2.30;1.13;;;;;;;25.28;40.29;94745.47;5003474;28;20096;-68
2022/08/02 01:09:03;;;;;;;2.83;1.27;;;;;;;25.16;40.50;94727.84;5008988;28;20574;-71
2022/08/02 01:11:28;;;;;;;1.90;1.25;;;;;;;25.18;40.71;94752.63;5014534;28;20197;-67
2022/08/02 01:13:56;;;;;;;2.05;1.23;;;;;;;25.18;41.07;94758.09;5000428;28;20197;-65
2022/08/02 01:16:22;;;;;;;2.85;1.35;;;;;;;25.14;41.16;94757.69;5005026;28;20420;-67
2022/08/02 01:18:51;;;;;;;4.32;1.45;;;;;;;25.15;41.85;94759.16;5005634;28;20025;-63
2022/08/02 01:21:32;;;;;;;2.30;1.60;;;;;;;25.11;41.82;94753.28;5007931;28;20022;-67
2022/08/02 01:24:09;;;;;;;3.08;2.05;;;;;;;25.06;42.34;94762.31;5015133;28;20036;-68
2022/08/02 01:27:02;;;;;;;4.35;1.52;;;;;;;25.00;42.50;94753.47;5005043;28;20061;-67
2022/08/02 01:29:30;;;;;;;4.55;2.00;;;;;;;24.93;42.91;94754.09;5006324;28;20516;-63
2022/08/02 01:32:01;;;;;;;3.15;1.88;;;;;;;24.92;42.83;94752.63;5005771;28;20057;-69
2022/08/02 01:34:34;;;;;;;1.85;1.55;;;;;;;24.93;43.20;94759.56;5025693;28;20460;-70
2022/08/02 01:37:04;;;;;;;3.40;1.77;;;;;;;24.63;43.15;94716.69;4991816;28;20416;-67
2022/08/02 01:39:30;;;;;;;2.50;1.92;;;;;;;24.85;43.36;94758.72;5006196;28;20026;-70
2022/08/02 01:41:56;;;;;;;3.28;1.65;;;;;;;24.80;43.18;94749.88;4992178;28;20042;-67
2022/08/02 01:44:21;;;;;;;3.45;1.63;;;;;;;24.84;43.22;94754.53;4994510;28;20034;-72
2022/08/02 01:46:47;;;;;;;2.58;1.77;;;;;;;24.48;43.69;94713.72;4995913;28;20476;-68
2022/08/02 01:49:14;;;;;;;2.35;1.77;;;;;;;24.62;43.73;94739.78;5006706;28;20045;-72
2022/08/02 01:54:26;;;;;;;2.10;1.50;;;;;;;24.63;43.39;94757.63;4991925;28;20092;-73
2022/08/02 01:56:51;;;;;;;2.47;1.83;;;;;;;24.64;43.25;94761.84;4974425;28;20030;-74
2022/08/02 01:59:18;;;;;;;2.72;1.60;;;;;;;24.48;43.19;94741.03;4990097;28;20112;-71
2022/08/02 02:01:43;;;;;;;3.08;1.90;;;;;;;24.45;43.67;94750.25;4988071;28;20587;-70
2022/08/02 02:04:09;;;;;;;2.92;1.70;;;;;;;24.60;43.30;94772.34;5004329;28;20038;-66
2022/08/02 02:06:35;;;;;;;2.90;1.70;;;;;;;24.47;43.84;94755.97;5004981;28;20425;-66
2022/08/02 02:09:01;;;;;;;2.45;1.90;;;;;;;24.23;43.58;94731.53;4971419;28;20061;-63
2022/08/02 02:11:26;;;;;;;7.10;2.00;;;;;;;24.55;43.59;94775.91;4996378;28;20049;-70
2022/08/02 02:13:52;;;;;;;2.95;1.90;;;;;;;24.46;44.18;94776.31;5014192;28;20064;-68
2022/08/02 02:16:18;;;;;;;3.65;2.33;;;;;;;24.24;44.22;94749.34;4991599;28;20103;-70
2022/08/02 02:18:43;;;;;;;2.28;1.70;;;;;;;24.30;44.55;94752.72;4995900;28;20026;-73
2022/08/02 02:21:09;;;;;;;3.17;1.70;;;;;;;24.39;44.45;94768.72;4984132;28;20421;-66
2022/08/02 02:23:34;;;;;;;3.15;2.00;;;;;;;24.13;44.18;94727.72;4979933;28;20072;-69
2022/08/02 02:26:01;;;;;;;2.10;1.70;;;;;;;24.09;44.29;94732.72;4976868;28;20053;-70
2022/08/02 02:28:31;;;;;;;3.30;2.00;;;;;;;24.33;44.25;94770.81;4988432;28;20038;-74
2022/08/02 02:31:05;;;;;;;4.13;2.05;;;;;;;24.28;44.24;94768.88;5005706;28;20030;-66
2022/08/02 02:33:31;;;;;;;3.60;1.80;;;;;;;24.13;44.46;94760.44;5013761;28;20083;-72
2022/08/02 02:35:56;;;;;;;4.57;1.90;;;;;;;24.14;45.13;94767.38;5015398;28;20033;-68
2022/08/02 02:38:22;;;;;;;2.90;2.60;;;;;;;24.20;44.82;94781.69;5007023;28;20512;-74
2022/08/02 02:40:47;;;;;;;2.95;1.95;;;;;;;24.07;44.52;94750.88;5004399;28;20034;-69
2022/08/02 02:43:13;;;;;;;2.50;1.90;;;;;;;24.15;44.76;94768.84;4987537;28;20117;-66
2022/08/02 02:45:38;;;;;;;3.15;1.80;;;;;;;23.99;44.85;94750.75;5012285;28;20033;-74
2022/08/02 02:48:04;;;;;;;3.28;1.88;;;;;;;23.77;45.16;94722.34;5013844;28;20045;-65
2022/08/02 02:50:30;;;;;;;2.35;1.92;;;;;;;23.90;44.83;94748.41;5007142;28;20500;-64
2022/08/02 02:52:56;;;;;;;2.75;1.85;;;;;;;24.05;45.12;94770.50;5006444;28;20405;-65
2022/08/02 02:55:21;;;;;;;5.30;2.22;;;;;;;23.97;45.02;94764.16;5003399;28;20650;-67
2022/08/02 02:57:47;;;;;;;3.30;2.10;;;;;;;23.91;45.42;94760.78;5001986;28;20032;-63
2022/08/02 03:00:13;;;;;;;2.67;1.90;;;;;;;23.94;45.57;94776.09;5030160;28;20029;-67
2022/08/02 03:02:39;;;;;;;3.58;1.92;;;;;;;23.89;45.53;94773.47;5036394;28;20569;-66
2022/08/02 03:05:07;;;;;;;3.42;2.00;;;;;;;23.72;45.43;94742.25;5024427;28;20036;-66
2022/08/02 03:07:33;;;;;;;3.15;2.00;;;;;;;23.87;46.24;94760.34;5010137;28;20080;-65
2022/08/02 03:09:59;;;;;;;2.60;1.80;;;;;;;23.83;45.72;94761.19;5031507;28;20068;-63
2022/08/02 03:12:24;;;;;;;3.10;1.77;;;;;;;23.80;46.09;94770.41;5004981;28;20037;-63
2022/08/02 03:14:50;;;;;;;3.47;2.15;;;;;;;23.76;46.14;94753.59;5018586;28;20501;-62
2022/08/02 03:17:15;;;;;;;2.72;1.98;;;;;;;23.57;45.82;94736.47;5002481;28;20038;-62
2022/08/02 03:19:41;;;;;;;2.83;1.77;;;;;;;23.63;45.99;94750.75;5037223;28;20041;-68
2022/08/02 03:22:06;;;;;;;2.60;1.70;;;;;;;23.55;46.38;94739.00;5012598;28;20041;-64
2022/08/02 03:24:32;;;;;;;4.32;1.90;;;;;;;23.37;46.30;94720.66;5028538;28;20029;-67
2022/08/02 03:26:57;;;;;;;2.38;1.88;;;;;;;23.70;46.13;94766.56;5023561;28;20100;-62
2022/08/02 03:29:23;;;;;;;3.38;1.70;;;;;;;23.56;46.16;94740.47;5024262;28;20089;-63
2022/08/02 03:31:48;;;;;;;3.42;1.98;;;;;;;23.51;46.05;94744.00;5019789;28;20073;-66
2022/08/02 03:34:14;;;;;;;3.63;2.03;;;;;;;23.56;46.42;94756.81;5019142;28;20508;-65
2022/08/02 03:36:39;;;;;;;5.18;1.80;;;;;;;23.53;46.42;94760.59;4986555;28;20076;-69
2022/08/02 03:39:05;;;;;;;3.92;2.10;;;;;;;23.54;46.56;94770.22;5004502;28;20402;-69
2022/08/02 03:41:30;;;;;;;2.70;1.90;;;;;;;23.58;46.74;94778.84;4985986;28;20034;-63
2022/08/02 03:43:56;;;;;;;3.03;1.75;;;;;;;23.44;46.85;94766.41;4982194;28;20041;-63
2022/08/02 03:46:22;;;;;;;2.85;1.90;;;;;;;23.54;46.77;94776.41;5013938;28;20041;-67
2022/08/02 03:48:48;;;;;;;3.35;2.00;;;;;;;23.40;46.46;94755.03;5012471;28;20074;-64
2022/08/02 03:51:14;;;;;;;2.35;2.03;;;;;;;23.46;47.07;94763.88;4986921;28;20398;-63
2022/08/02 03:53:39;;;;;;;3.13;1.90;;;;;;;23.53;46.64;94783.13;5004087;28;20037;-67
2022/08/02 03:56:05;;;;;;;3.05;1.95;;;;;;;23.49;46.67;94779.22;4992007;28;20497;-64
2022/08/02 03:58:31;;;;;;;3.22;2.30;;;;;;;23.31;46.71;94763.59;5017468;28;20112;-62
2022/08/02 04:00:57;;;;;;;3.92;2.05;;;;;;;23.49;47.33;94801.00;5003963;28;20017;-65
2022/08/02 04:03:23;;;;;;;3.00;2.00;;;;;;;23.26;47.50;94771.81;5029634;28;20116;-64
2022/08/02 04:05:48;;;;;;;3.83;2.63;;;;;;;23.30;46.93;94783.91;5022369;28;20470;-66
2022/08/02 04:08:14;;;;;;;3.17;1.90;;;;;;;23.17;47.09;94764.75;5018964;28;20057;-63
2022/08/02 04:13:27;;;;;;;4.65;2.40;;;;;;;23.45;47.38;94811.47;5009330;28;20104;-66
2022/08/02 04:15:53;;;;;;;3.30;2.50;;;;;;;23.24;47.65;94791.41;5014090;28;20036;-67
2022/08/02 04:18:19;;;;;;;4.75;2.20;;;;;;;23.37;47.60;94807.84;5003278;28;20190;-64
2022/08/02 04:20:44;;;;;;;2.60;2.13;;;;;;;23.24;47.58;94785.94;4991784;28;20107;-66
2022/08/02 04:23:10;;;;;;;9.05;3.55;;;;;;;23.43;47.46;94814.69;4985665;28;20099;-63
2022/08/02 04:25:36;;;;;;;2.80;2.10;;;;;;;23.19;47.00;94789.50;5003629;28;20045;-63
2022/08/02 04:28:01;;;;;;;5.07;2.53;;;;;;;23.21;46.83;94791.69;5010566;28;20049;-65
2022/08/02 04:30:27;;;;;;;4.40;2.60;;;;;;;23.42;46.73;94807.03;4970577;28;20040;-66
2022/08/02 04:32:53;;;;;;;3.83;2.15;;;;;;;23.42;45.98;94807.03;5003104;28;20041;-64
2022/08/02 04:35:18;;;;;;;4.45;2.75;;;;;;;23.25;46.58;94776.53;4993282;28;20398;-70
2022/08/02 04:37:44;;;;;;;4.47;2.63;;;;;;;23.53;46.14;94812.38;4989206;28;20056;-66
2022/08/02 04:40:10;;;;;;;5.68;2.45;;;;;;;23.61;45.76;94818.69;4986959;28;20065;-68
2022/08/02 04:42:36;;;;;;;3.70;2.55;;;;;;;23.64;45.59;94817.69;4983245;28;20025;-63
2022/08/02 04:45:02;;;;;;;4.53;2.63;;;;;;;23.66;45.68;94810.50;5003047;28;20030;-66
2022/08/02 04:47:27;;;;;;;3.83;2.55;;;;;;;23.68;45.59;94801.78;5006482;28;20042;-66
2022/08/02 04:49:53;;;;;;;4.85;2.53;;;;;;;23.87;45.17;94823.09;5016860;28;20121;-66
2022/08/02 04:52:19;;;;;;;5.35;2.40;;;;;;;23.86;44.97;94797.06;5006212;28;20045;-63
2022/08/02 04:54:44;;;;;;;3.88;2.30;;;;;;;23.88;44.15;94789.09;5024296;28;20462;-64
2022/08/02 04:59:55;;;;;;;5.10;2.70;;;;;;;24.38;43.59;94819.13;5007429;28;20542;-63
2022/08/02 05:02:20;;;;;;;6.70;2.90;;;;;;;24.49;43.57;94808.03;5025247;28;20037;-70
2022/08/02 05:04:45;;;;;;;5.93;3.53;;;;;;;24.69;42.74;94815.63;5041305;28;20072;-69
2022/08/02 05:07:11;;;;;;;4.65;2.13;;;;;;;24.93;42.59;94830.59;5009992;28;20410;-68
2022/08/02 05:09:36;;;;;;;7.53;3.70;;;;;;;24.98;42.64;94794.22;5007700;28;20049;-68
2022/08/02 05:12:02;;;;;;;4.55;2.75;;;;;;;25.25;42.23;94817.59;5020284;28;20041;-66
2022/08/02 05:14:28;;;;;;;4.93;2.78;;;;;;;25.50;42.10;94827.03;5014860;28;20092;-67
2022/08/02 05:16:53;;;;;;;4.30;2.67;;;;;;;25.57;41.73;94804.53;5015205;28;20511;-64
2022/08/02 05:19:18;;;;;;;6.72;2.63;;;;;;;25.68;41.31;94798.84;5013455;28;20037;-66
2022/08/02 05:21:44;;;;;;;4.03;2.22;;;;;;;26.03;40.96;94829.91;5010968;28;20034;-65
2022/08/02 05:24:09;;;;;;;7.28;2.50;;;;;;;26.17;40.78;94820.38;5008499;28;20026;-68
2022/08/02 05:26:35;;;;;;;7.57;3.45;;;;;;;26.32;41.03;94828.78;4991680;28;20041;-64
2022/08/02 05:29:02;;;;;;;7.97;2.92;;;;;;;26.49;41.26;94835.34;5006213;28;20113;-64
2022/08/02 05:31:27;;;;;;;7.18;2.85;;;;;;;26.66;41.35;94837.69;5005731;28;20122;-64
2022/08/02 05:33:52;;;;;;;9.43;3.00;;;;;;;26.78;40.86;94829.38;5031576;28;20028;-64
2022/08/02 05:36:18;;;;;;;5.63;2.75;;;;;;;26.91;41.23;94817.66;5007328;28;20037;-65
2022/08/02 05:38:43;;;;;;;5.45;2.42;;;;;;;27.16;39.93;94833.19;5006805;28;20046;-65
2022/08/02 05:41:09;;;;;;;5.20;2.42;;;;;;;27.00;39.62;94793.22;5012639;28;20036;-65
2022/08/02 05:43:34;;;;;;;7.07;2.78;;;;;;;27.22;38.76;94820.06;5014276;28;20499;-69
2022/08/02 05:46:00;;;;;;;4.95;2.28;;;;;;;27.42;38.37;94822.72;5021206;28;20022;-71
2022/08/02 05:48:25;;;;;;;4.82;2.05;;;;;;;27.66;37.67;94835.31;5019813;28;20117;-72
2022/08/02 05:50:54;;;;;;;8.88;2.30;;;;;;;27.73;37.54;94837.34;5024309;28;20049;-66
2022/08/02 05:53:25;;;;;;;5.93;2.08;;;;;;;27.91;37.30;94846.03;4994492;28;20038;-66
2022/08/02 05:56:19;;;;;;;3.95;2.00;;;;;;;27.97;37.84;94852.09;5013763;28;20061;-68
2022/08/02 05:59:33;;;;;;;4.03;2.10;;;;;;;28.10;37.24;94841.03;4991482;28;20957;-67
2022/08/02 06:02:02;;;;;;;3.50;1.90;;;;;;;28.26;37.20;94851.50;5000305;28;20584;-68
2022/08/02 06:04:33;;;;;;;5.40;2.03;;;;;;;28.24;36.24;94823.13;5022004;28;20041;-68
2022/08/02 06:07:01;;;;;;;4.50;2.10;;;;;;;28.42;37.12;94855.03;5003994;28;20526;-67
2022/08/02 06:09:27;;;;;;;5.05;2.10;;;;;;;28.30;36.16;94820.94;5018278;28;20084;-66
2022/08/02 06:11:52;;;;;;;3.22;1.60;;;;;;;28.35;36.73;94831.00;5001603;28;20034;-66
2022/08/02 06:14:18;;;;;;;3.33;1.77;;;;;;;28.40;36.40;94824.59;5013487;28;20033;-64
2022/08/02 06:16:44;;;;;;;3.30;1.70;;;;;;;28.62;36.38;94851.38;5005428;28;20054;-67
2022/08/02 06:19:12;;;;;;;2.65;1.90;;;;;;;28.61;35.42;94838.91;4992959;28;20055;-66
2022/08/02 06:21:41;;;;;;;4.47;2.00;;;;;;;28.55;35.63;94819.13;4995543;28;20129;-68
2022/08/02 06:24:10;;;;;;;4.67;1.77;;;;;;;29.00;34.71;94867.41;5001365;28;20030;-66
2022/08/02 06:26:36;;;;;;;12.93;2.33;;;;;;;29.08;34.61;94865.38;4993150;28;20073;-65
2022/08/02 06:29:02;;;;;;;7.25;2.10;;;;;;;29.04;34.81;94862.25;4980347;28;20300;-69
2022/08/02 06:31:27;;;;;;;7.65;2.30;;;;;;;29.00;34.81;94842.66;5003756;28;20495;-66
2022/08/02 06:33:53;;;;;;;3.95;2.00;;;;;;;28.96;34.99;94838.81;4996258;28;20482;-66
2022/08/02 06:36:24;;;;;;;4.60;1.73;;;;;;;29.17;34.72;94862.78;4999855;28;20621;-69
2022/08/02 06:39:02;;;;;;;4.30;1.35;;;;;;;29.00;34.40;94837.16;4994009;28;20069;-65
2022/08/02 06:41:29;;;;;;;4.40;1.70;;;;;;;29.17;33.49;94873.06;4985233;28;20113;-64
2022/08/02 06:43:58;;;;;;;4.20;1.77;;;;;;;29.23;33.80;94873.63;5012201;28;20037;-64
2022/08/02 06:46:23;;;;;;;3.22;1.35;;;;;;;29.06;33.79;94862.44;4992801;28;20042;-66
2022/08/02 06:48:49;;;;;;;4.30;1.45;;;;;;;29.02;33.99;94862.06;4986877;28;20037;-63
2022/08/02 06:51:14;;;;;;;3.47;1.48;;;;;;;29.05;33.96;94871.25;4989882;28;20025;-64
2022/08/02 06:53:39;;;;;;;1.88;1.35;;;;;;;28.77;34.61;94852.91;4989160;28;20026;-63
2022/08/02 06:56:05;;;;;;;4.97;1.50;;;;;;;28.66;34.15;94849.03;4988812;28;20041;-68
2022/08/02 06:58:31;;;;;;;3.47;1.70;;;;;;;28.46;34.64;94827.91;4989427;28;20505;-64
2022/08/02 07:00:56;;;;;;;2.60;1.30;;;;;;;28.73;34.47;94874.53;4988997;28;20029;-64
2022/08/02 07:03:24;;;;;;;2.33;1.40;;;;;;;28.57;34.56;94863.31;4990238;28;20025;-63
2022/08/02 07:05:49;;;;;;;2.75;1.40;;;;;;;28.43;34.50;94867.47;4992257;28;20096;-64
2022/08/02 07:08:15;;;;;;;2.47;1.52;;;;;;;28.20;35.07;94839.22;4993035;28;20039;-63
2022/08/02 07:10:41;;;;;;;3.17;1.38;;;;;;;28.26;34.52;94842.53;4993186;28;20042;-63
2022/08/02 07:13:06;;;;;;;1.98;1.50;;;;;;;28.25;35.23;94874.75;4997787;28;20113;-64
2022/08/02 07:15:32;;;;;;;1.73;1.10;;;;;;;28.09;35.47;94874.53;4994784;28;20026;-63
2022/08/02 07:17:57;;;;;;;5.25;1.23;;;;;;;27.97;35.70;94865.84;5008258;28;20042;-63
2022/08/02 07:20:23;;;;;;;2.13;1.23;;;;;;;27.91;35.46;94868.00;5010045;28;20045;-64
2022/08/02 07:22:48;;;;;;;2.03;1.38;;;;;;;27.84;35.67;94879.69;5008184;28;20637;-70
2022/08/02 07:25:14;;;;;;;2.33;1.08;;;;;;;27.72;35.49;94855.13;5004954;28;20042;-68
2022/08/02 07:27:39;;;;;;;2.95;1.20;;;;;;;27.79;36.46;94877.09;5006643;28;20432;-73
2022/08/02 07:30:05;;;;;;;4.30;1.48;;;;;;;27.57;36.11;94838.56;4991337;28;20508;-76
2022/08/02 07:32:31;;;;;;;2.33;1.40;;;;;;;27.72;35.85;94860.59;5007320;28;20069;-76
2022/08/02 07:34:57;;;;;;;2.88;1.27;;;;;;;27.41;36.14;94826.00;5008756;28;20021;-69
2022/08/02 07:37:29;;;;;;;2.97;1.30;;;;;;;27.45;36.55;94842.88;5012858;28;20116;-64
2022/08/02 07:39:54;;;;;;;2.40;1.50;;;;;;;27.57;36.50;94866.00;5009811;28;20633;-70
2022/08/02 07:42:20;;;;;;;2.97;1.67;;;;;;;27.59;36.71;94864.16;5006074;28;20858;-69
2022/08/02 07:44:45;;;;;;;3.33;1.73;;;;;;;27.42;36.16;94832.97;5021139;28;20041;-73
2022/08/02 07:47:11;;;;;;;3.92;3.53;;;;;;;27.34;36.83;94837.69;5022541;28;20524;-71
2022/08/02 07:49:37;;;;;;;8.68;3.25;;;;;;;27.48;37.22;94858.25;5023950;28;20033;-71
2022/08/02 07:52:03;;;;;;;5.70;2.10;;;;;;;27.40;37.42;94852.00;5022354;28;20527;-75
2022/08/02 07:54:28;;;;;;;2.47;1.23;;;;;;;27.26;37.13;94831.41;5025145;28;20025;-68
2022/08/02 07:56:54;;;;;;;3.60;1.90;;;;;;;27.45;36.95;94864.81;5022970;28;20463;-68
2022/08/02 07:59:20;;;;;;;3.92;2.10;;;;;;;27.27;37.12;94832.88;5024440;28;20440;-72
2022/08/02 08:01:45;;;;;;;6.13;1.98;;;;;;;27.34;36.82;94854.13;5008894;28;20048;-71
2022/08/02 08:04:11;;;;;;;4.25;2.00;;;;;;;27.27;36.96;94844.56;5017158;28;20033;-75
2022/08/02 08:06:36;;;;;;;4.65;2.15;;;;;;;27.34;36.75;94854.13;5024487;28;20111;-73
2022/08/02 08:09:02;;;;;;;2.97;1.50;;;;;;;27.34;37.05;94860.34;5031522;28;20048;-75
2022/08/02 08:11:28;;;;;;;4.28;2.15;;;;;;;27.31;37.11;94860.69;5022528;28;20039;-73
2022/08/02 08:13:53;;;;;;;5.53;1.50;;;;;;;27.08;37.37;94826.91;5010667;28;20025;-69
2022/08/02 08:16:19;;;;;;;4.88;2.00;;;;;;;27.30;36.81;94859.22;5022902;28;20035;-66
2022/08/02 08:18:44;;;;;;;4.18;1.65;;;;;;;27.18;37.60;94846.34;5024340;28;20026;-64
2022/08/02 08:21:10;;;;;;;3.80;1.45;;;;;;;27.21;37.42;94845.28;5023073;28;20021;-68
2022/08/02 08:23:35;;;;;;;4.95;1.73;;;;;;;27.07;37.28;94830.16;5023800;28;20053;-70
2022/08/02 08:26:02;;;;;;;10.55;6.47;;;;;;;27.14;37.88;94841.19;5023255;28;20075;-64
2022/08/02 08:28:27;;;;;;;3.22;1.45;;;;;;;27.08;37.99;94823.44;5022826;28;20034;-67
2022/08/02 08:30:53;;;;;;;5.40;2.15;;;;;;;27.32;37.24;94856.66;5011653;28;20468;-66
2022/08/02 08:33:18;;;;;;;3.58;1.30;;;;;;;27.17;37.16;94833.91;5004459;28;20032;-71
2022/08/02 08:35:44;;;;;;;2.35;1.00;;;;;;;27.05;37.90;94806.03;5023768;28;20486;-74
2022/08/02 08:38:09;;;;;;;26.65;8.85;;;;;;;27.35;37.58;94844.63;5023321;28;20025;-62
2022/08/02 08:40:35;;;;;;;7.28;2.92;;;;;;;27.41;37.27;94858.91;5009918;28;20417;-74
2022/08/02 08:43:01;;;;;;;4.65;2.95;;;;;;;27.45;36.75;94848.34;5023383;28;20036;-74
2022/08/02 08:45:27;;;;;;;3.67;1.88;;;;;;;27.22;37.35;94831.03;5005921;28;20030;-71
2022/08/02 08:48:11;;;;;;;14.57;13.00;;;;;;;27.21;37.55;94821.31;5021597;28;20036;-71
2022/08/02 08:50:37;;;;;;;883.08;627.42;;;;;;;27.37;37.10;94853.06;5015293;28;20491;-73
2022/08/02 08:53:04;;;;;;;322.98;234.50;;;;;;;27.29;37.62;94844.03;5001301;28;20113;-67
2022/08/02 08:55:30;;;;;;;1466.03;879.50;;;;;;;27.37;37.68;94855.81;4999913;28;20124;-75
2022/08/02 08:57:57;;;;;;;2.63;1.00;;;;;;;27.33;37.28;94841.69;4973840;28;20205;-74
2022/08/02 09:00:23;;;;;;;4.47;3.22;;;;;;;27.32;37.00;94840.22;4998329;28;20511;-71
2022/08/02 09:02:48;;;;;;;3.17;1.20;;;;;;;27.39;37.33;94847.75;5005067;28;20025;-66
2022/08/02 09:05:14;;;;;;;1.67;1.05;;;;;;;27.36;36.93;94840.63;5005718;28;20061;-75
2022/08/02 09:07:41;;;;;;;2.85;1.80;;;;;;;27.42;37.85;94849.44;5005201;28;20037;-67
2022/08/02 09:10:34;;;;;;;2.22;1.10;;;;;;;27.44;37.92;94846.88;5023901;28;20379;-74
2022/08/02 09:13:09;;;;;;;2.40;0.95;;;;;;;27.44;38.14;94841.38;5019203;28;20022;-68
2022/08/02 09:15:36;;;;;;;1.67;1.00;;;;;;;27.41;36.66;94842.47;5013760;28;20040;-70
2022/08/02 09:18:03;;;;;;;1.98;1.00;;;;;;;27.18;37.36;94808.69;5023041;28;20099;-63
2022/08/02 09:20:29;;;;;;;1.55;0.90;;;;;;;27.32;37.31;94823.75;5022692;28;20081;-65
2022/08/02 09:23:07;;;;;;;1.55;0.90;;;;;;;27.37;37.27;94836.59;5020264;28;20487;-65
2022/08/02 09:25:33;;;;;;;2.17;0.88;;;;;;;27.28;36.93;94817.91;5001187;28;20018;-68
2022/08/02 09:27:58;;;;;;;1.40;1.10;;;;;;;27.42;36.77;94838.47;5003925;28;20049;-73
2022/08/02 09:30:25;;;;;;;1.40;0.70;;;;;;;27.51;35.92;94846.94;5006075;28;20064;-65
2022/08/02 09:32:50;;;;;;;1.23;0.70;;;;;;;27.47;35.99;94832.06;5002201;28;20175;-64
2022/08/02 09:35:35;;;;;;;1.15;0.70;;;;;;;27.28;36.09;94806.94;5011682;28;20042;-68
2022/08/02 09:38:11;;;;;;;2.10;0.80;;;;;;;27.33;35.77;94808.78;5010384;28;20396;-68
2022/08/02 09:40:37;;;;;;;1.10;0.75;;;;;;;27.40;36.04;94813.59;5013730;28;20652;-68
2022/08/02 09:43:03;;;;;;;1.92;0.80;;;;;;;27.48;37.01;94822.59;5006856;28;20501;-65
2022/08/02 09:45:35;;;;;;;1.60;0.93;;;;;;;27.57;36.82;94833.09;5026679;28;20142;-71
2022/08/02 09:48:07;;;;;;;3.50;0.75;;;;;;;27.68;36.88;94838.25;5023873;28;20038;-63
2022/08/02 09:50:39;;;;;;;4.13;0.90;;;;;;;27.64;36.23;94818.66;5005623;28;20045;-66
2022/08/02 09:53:05;;;;;;;4.60;1.17;;;;;;;27.76;36.79;94801.34;5004621;28;20030;-64
2022/08/02 09:55:31;;;;;;;1.67;0.88;;;;;;;28.11;35.86;94825.28;5005715;28;20793;-64
2022/08/02 09:57:56;;;;;;;1.48;0.82;;;;;;;28.08;36.22;94796.84;4999050;28;20504;-61
2022/08/02 10:00:22;;;;;;;2.60;0.82;;;;;;;28.07;36.24;94770.69;5025051;28;20037;-65
2022/08/02 10:03:05;;;;;;;1.30;1.02;;;;;;;28.59;35.65;94814.00;5024560;28;20048;-64
2022/08/02 10:05:52;;;;;;;1.90;0.90;;;;;;;28.76;35.07;94818.44;5025650;28;20045;-64
2022/08/02 10:08:18;;;;;;;2.22;1.05;;;;;;;28.86;35.59;94816.63;5013101;28;20136;-66
2022/08/02 10:10:43;;;;;;;1.48;0.90;;;;;;;28.87;34.92;94801.56;4994593;28;20181;-65
2022/08/02 10:13:09;;;;;;;3.47;0.77;;;;;;;28.96;34.51;94787.28;5024455;28;20095;-65
2022/08/02 10:15:36;;;;;;;2.13;0.90;;;;;;;29.21;33.84;94796.41;5025399;28;20729;-66
2022/08/02 10:18:05;;;;;;;1.75;0.70;;;;;;;29.32;34.66;94796.06;5024207;28;20029;-67
2022/08/02 10:20:32;;;;;;;0.90;0.50;;;;;;;29.62;33.86;94818.00;5015231;28;20038;-68
2022/08/02 10:22:58;;;;;;;1.35;0.70;;;;;;;29.65;33.60;94783.84;4991289;28;20021;-66
2022/08/02 10:25:23;;;;;;;1.15;0.70;;;;;;;29.89;33.72;94809.47;5025590;28;20033;-66
2022/08/02 10:27:49;;;;;;;1.02;0.60;;;;;;;29.92;33.20;94796.59;5006344;28;20048;-68
2022/08/02 10:30:14;;;;;;;2.58;0.80;;;;;;;30.04;33.34;94809.41;5007618;28;20507;-68
2022/08/02 10:32:42;;;;;;;1.00;0.57;;;;;;;30.14;33.65;94802.00;5007159;28;20420;-68
2022/08/02 10:35:16;;;;;;;1.80;0.70;;;;;;;30.24;33.59;94802.88;4970922;28;20519;-70
2022/08/02 10:37:41;;;;;;;1.80;0.90;;;;;;;30.26;33.14;94795.50;4993518;28;20032;-66
2022/08/02 10:40:21;;;;;;;3.72;0.70;;;;;;;30.38;32.99;94799.31;4953863;28;20127;-65
2022/08/02 10:42:59;;;;;;;1.25;0.80;;;;;;;30.42;33.18;94804.44;4988658;28;20038;-74
2022/08/02 10:45:25;;;;;;;1.60;0.90;;;;;;;30.38;33.44;94798.59;5004793;28;20045;-74
2022/08/02 10:48:02;;;;;;;1.95;0.80;;;;;;;30.46;33.80;94796.50;5002649;28;20125;-76
2022/08/02 10:50:46;;;;;;;2.42;0.77;;;;;;;30.45;33.50;94811.56;4992757;28;20049;-73
2022/08/02 10:53:18;;;;;;;1.85;0.73;;;;;;;30.38;33.95;94799.31;5018530;28;20097;-76
2022/08/02 10:55:44;;;;;;;1.83;0.77;;;;;;;30.31;34.14;94800.06;5023385;28;20029;-76
2022/08/02 10:58:20;;;;;;;1.45;0.60;;;;;;;30.30;32.50;94792.38;5022704;28;20045;-77
2022/08/02 11:00:46;;;;;;;1.67;0.52;;;;;;;30.29;32.58;94796.41;5023145;28;20161;-76
2022/08/02 11:03:27;;;;;;;1.42;0.50;;;;;;;30.23;32.43;94795.91;5022192;28;20045;-72
2022/08/02 11:06:08;;;;;;;0.98;0.60;;;;;;;30.13;32.93;94794.31;5023334;28;20510;-74
2022/08/02 11:08:34;;;;;;;0.98;0.50;;;;;;;30.00;33.65;94798.03;5010497;28;20354;-75
2022/08/02 11:11:02;;;;;;;2.00;0.68;;;;;;;29.84;33.70;94774.59;5023558;28;20807;-73
2022/08/02 11:13:29;;;;;;;1.15;0.75;;;;;;;29.87;34.02;94789.28;5004069;28;20042;-76
2022/08/02 11:16:03;;;;;;;1.92;0.70;;;;;;;29.76;33.72;94795.16;5002829;28;20054;-70
2022/08/02 11:18:51;;;;;;;2.72;0.60;;;;;;;29.69;34.40;94802.19;5022839;28;20030;-76
2022/08/02 11:21:22;;;;;;;1.05;0.60;;;;;;;29.63;34.08;94798.16;5025850;28;20037;-70
2022/08/02 11:23:47;;;;;;;1.30;0.60;;;;;;;29.32;34.56;94763.03;5008811;28;20045;-72
2022/08/02 11:26:31;;;;;;;1.42;0.60;;;;;;;29.50;34.07;94801.13;5010517;28;20038;-71
2022/08/02 11:28:58;;;;;;;1.80;0.82;;;;;;;29.36;34.36;94779.91;5017255;28;20026;-73
2022/08/02 11:31:24;;;;;;;2.60;0.68;;;;;;;29.22;34.37;94764.84;5002669;28;20096;-69
2022/08/02 11:33:49;;;;;;;1.90;0.65;;;;;;;29.08;34.85;94749.84;5012791;28;20138;-70
2022/08/02 11:36:15;;;;;;;1.45;0.70;;;;;;;29.19;34.54;94771.47;5009806;28;20538;-71
2022/08/02 11:38:41;;;;;;;1.67;0.63;;;;;;;29.31;34.76;94794.56;5012518;28;20049;-71
2022/08/02 11:41:06;;;;;;;1.75;0.70;;;;;;;29.10;35.33;94769.28;5018186;28;20488;-76
2022/08/02 11:43:32;;;;;;;1.80;0.70;;;;;;;29.21;34.91;94790.91;5018606;28;20036;-71